Main page
METAR-TAF:

METAR-TAF

Airports :

Tashkent, Uzbekistan

Tashkent International Airport

latitude: 41-16N, longitude: 069-16E, elevation: 489 m

Current weather observation

The report was made 22 minutes ago, at 11:30 UTC
Wind 6 kt from the North, varying between Northwest and North/Northeast
Temperature 14°C
Humidity 26%
Pressure 1025 hPa
Visibility: 7000 m

METAR: UTTT 201130Z 35006KT 320V020 7000 NSC 14/M05 Q1025 R08R/CLRD70 NOSIG

Time: 16:52 (11:52 UTC)

Forecast

The report was made 52 minutes ago, at 11:00 UTC
Forecast valid from 20 at 12 UTC to 21 at 12 UTC
Wind 8 kt from the East/Northeast
Visibility: 7000 m
Temporary
from 20 at 13 UTC to 21 at 02 UTC
Visibility: 2000 m
mist, smoke

TAF: UTTT 201100Z 2012/2112 07008KT 7000 NSC TEMPO 2013/2102 2000 BR FU

Weather observations and forecasts of more than 4000 airports (METAR and TAF reports).

The available stations are represented by yellow and red dots on the map.

Hover mouse over dot to see the name of the station.

Then click to see weather observations and forecasts.

To change the map : click on the green buttons with a black cross to zoom in, on the green button with a dash to zoom out, or on the green arrows for adjacent maps.


METAR-TAF: